Time;durP1;ratioP1;P1;durP2;ratioP2;P2;SDS_P1;SDS_P2;PMS_P1;PMS_P2;Temp;Humidity;BMP_temperature;BMP_pressure;BME280_temperature;BME280_humidity;BME280_pressure;Samples;Min_cycle;Max_cycle;Signal;HPM_P1;HPM_P2
2024/04/16 00:00:26;;;;;;;5.60;4.40;;;;;;;10.47;100.00;98514.34;106393;1256;73224;-56
2024/04/16 00:02:53;;;;;;;4.70;3.80;;;;;;;10.54;100.00;98483.66;107049;1253;61291;-55
2024/04/16 00:05:20;;;;;;;10.10;4.10;;;;;;;10.61;100.00;98480.75;107369;1253;60713;-56
2024/04/16 00:07:50;;;;;;;5.60;3.80;;;;;;;10.67;100.00;98469.70;107069;1254;76449;-55
2024/04/16 00:10:18;;;;;;;5.20;4.10;;;;;;;10.76;100.00;98478.13;107095;1256;71288;-55
2024/04/16 00:12:47;;;;;;;5.00;3.60;;;;;;;10.77;100.00;98480.83;107108;1254;72214;-56
2024/04/16 00:15:33;;;;;;;5.20;3.80;;;;;;;10.77;100.00;98491.17;106639;1254;61412;-55
2024/04/16 00:18:01;;;;;;;4.30;3.90;;;;;;;10.77;100.00;98506.27;106382;1259;61184;-56
2024/04/16 00:20:29;;;;;;;9.50;3.60;;;;;;;10.72;100.00;98516.87;106948;1253;74494;-55
2024/04/16 00:22:56;;;;;;;5.90;3.90;;;;;;;10.69;100.00;98524.77;107048;1254;69694;-55
2024/04/16 06:04:06;;;;;;;5.50;4.80;;;;;;;12.16;100.00;98314.67;104147;1289;618853;-56
2024/04/16 06:06:35;;;;;;;6.30;4.80;;;;;;;12.26;100.00;98325.20;106484;1266;62536;-55
2024/04/16 06:09:04;;;;;;;8.50;4.80;;;;;;;12.28;100.00;98328.05;105918;1269;60960;-55
2024/04/16 06:11:31;;;;;;;6.10;4.80;;;;;;;12.33;100.00;98329.98;106243;1266;71971;-55
2024/04/16 06:13:58;;;;;;;6.90;5.00;;;;;;;12.33;100.00;98325.60;106531;1266;70507;-56
2024/04/16 06:17:40;;;;;;;5.20;4.80;;;;;;;11.99;100.00;98320.54;104716;1289;614596;-56
2024/04/16 06:20:09;;;;;;;4.80;4.40;;;;;;;12.19;100.00;98323.08;106342;1266;59267;-55
2024/04/16 06:22:37;;;;;;;7.40;5.00;;;;;;;12.37;100.00;98321.41;105942;1266;59643;-55
2024/04/16 06:25:06;;;;;;;7.90;5.70;;;;;;;12.44;100.00;98320.55;106214;1267;74301;-56
2024/04/16 06:27:35;;;;;;;7.30;6.20;;;;;;;12.47;100.00;98312.30;106100;1267;69740;-55
2024/04/16 06:30:03;;;;;;;6.40;5.80;;;;;;;12.50;100.00;98311.02;105530;1270;850163;-55
2024/04/16 06:32:30;;;;;;;7.00;6.20;;;;;;;12.54;100.00;98304.77;106244;1265;61809;-55
2024/04/16 06:34:58;;;;;;;6.70;6.10;;;;;;;12.54;100.00;98294.35;106512;1265;59005;-57
2024/04/16 06:37:25;;;;;;;6.80;6.20;;;;;;;12.64;100.00;98301.59;106068;1266;73451;-55
2024/04/16 06:39:52;;;;;;;6.40;5.80;;;;;;;12.55;100.00;98295.88;106451;1263;71472;-56
2024/04/16 06:42:20;;;;;;;5.90;5.40;;;;;;;12.68;100.00;98292.31;105990;1266;72062;-55
2024/04/16 06:44:47;;;;;;;6.40;5.70;;;;;;;12.58;100.00;98292.37;106377;1263;61936;-56
2024/04/16 06:47:14;;;;;;;7.70;5.90;;;;;;;12.75;100.00;98285.44;107381;1253;60108;-55
2024/04/16 06:49:43;;;;;;;6.80;6.10;;;;;;;12.99;100.00;98282.98;107191;1254;74041;-55
2024/04/16 06:52:10;;;;;;;5.90;5.40;;;;;;;13.13;100.00;98277.73;106941;1253;69577;-55
2024/04/16 06:54:38;;;;;;;7.10;5.30;;;;;;;13.21;100.00;98280.27;107050;1253;73291;-55
2024/04/16 06:57:06;;;;;;;5.90;5.40;;;;;;;13.27;100.00;98280.58;106925;1254;62242;-56
2024/04/16 06:59:34;;;;;;;7.10;5.90;;;;;;;13.34;100.00;98276.36;107102;1253;61207;-56
2024/04/16 07:02:01;;;;;;;6.30;5.60;;;;;;;13.39;100.00;98279.67;107833;1254;73427;-56
2024/04/16 07:04:29;;;;;;;6.00;5.40;;;;;;;13.42;100.00;98269.27;107154;1253;69473;-55
2024/04/16 07:06:57;;;;;;;7.50;5.40;;;;;;;13.46;100.00;98260.84;106925;1254;73347;-56
2024/04/16 07:09:28;;;;;;;8.70;5.30;;;;;;;13.55;100.00;98261.59;107006;1254;61616;-56
2024/04/16 07:11:56;;;;;;;6.10;5.50;;;;;;;13.64;100.00;98269.18;107259;1254;60175;-56
2024/04/16 07:14:24;;;;;;;5.70;5.20;;;;;;;13.73;100.00;98280.27;107892;1254;73498;-56
2024/04/16 07:16:52;;;;;;;6.50;5.50;;;;;;;13.81;100.00;98281.42;107232;1252;70484;-56
2024/04/16 07:19:19;;;;;;;5.10;4.70;;;;;;;13.90;100.00;98275.95;107410;1254;73548;-55
2024/04/16 07:21:47;;;;;;;6.50;4.70;;;;;;;14.01;100.00;98266.30;107405;1253;61009;-56
2024/04/16 07:24:14;;;;;;;5.70;5.00;;;;;;;14.09;100.00;98262.16;107567;1254;59309;-55
2024/04/16 07:26:42;;;;;;;8.40;5.40;;;;;;;14.11;100.00;98259.70;107427;1254;73828;-55
2024/04/16 07:29:10;;;;;;;5.70;5.20;;;;;;;14.13;100.00;98256.33;107226;1253;70153;-54
2024/04/16 07:31:38;;;;;;;5.80;5.30;;;;;;;14.13;100.00;98262.52;107518;1254;71531;-56
2024/04/16 07:34:15;;;;;;;5.50;5.00;;;;;;;14.22;100.00;98266.20;107847;1253;61759;-56
2024/04/16 07:36:42;;;;;;;6.80;5.60;;;;;;;14.27;100.00;98267.73;107910;1256;60039;-55
2024/04/16 07:39:10;;;;;;;9.40;4.90;;;;;;;14.30;100.00;98277.16;107978;1254;73824;-55
2024/04/16 07:41:38;;;;;;;6.80;4.30;;;;;;;14.35;100.00;98276.63;106920;1254;71388;-56
2024/04/16 07:44:05;;;;;;;7.80;4.70;;;;;;;14.44;100.00;98274.34;105743;1254;72772;-57
2024/04/16 07:46:33;;;;;;;6.00;4.80;;;;;;;14.65;100.00;98273.54;107108;1252;62785;-58
2024/04/16 07:49:00;;;;;;;5.30;4.70;;;;;;;14.70;100.00;98271.23;107101;1253;60417;-58
2024/04/16 07:51:27;;;;;;;5.10;4.50;;;;;;;14.78;100.00;98274.59;107023;1254;74613;-57
2024/04/16 07:53:54;;;;;;;6.60;4.90;;;;;;;14.87;100.00;98279.31;106536;1252;69358;-57
2024/04/16 07:56:21;;;;;;;5.90;4.30;;;;;;;14.79;100.00;98275.56;107006;1253;73373;-58
2024/04/16 07:58:48;;;;;;;5.00;4.60;;;;;;;14.78;100.00;98280.23;106528;1253;61139;-57
2024/04/16 08:01:16;;;;;;;5.10;4.70;;;;;;;14.83;100.00;98280.55;105591;1254;60526;-56
2024/04/16 08:03:43;;;;;;;;;;;;;;;14.86;100.00;98280.66;106252;1253;74037;-57
2024/04/16 08:06:10;;;;;;;7.60;4.80;;;;;;;15.08;100.00;98279.37;106692;1260;68853;-57
2024/04/16 08:08:38;;;;;;;7.20;4.60;;;;;;;15.06;100.00;98275.45;107150;1256;72145;-57
2024/04/16 08:11:12;;;;;;;8.40;4.80;;;;;;;15.22;100.00;98281.79;106195;1252;61889;-56
2024/04/16 08:13:39;;;;;;;8.10;5.00;;;;;;;15.15;100.00;98279.18;107244;1254;60559;-57
2024/04/16 08:16:06;;;;;;;9.20;4.80;;;;;;;15.20;100.00;98277.88;106423;1253;74526;-57
2024/04/16 08:18:34;;;;;;;7.00;4.50;;;;;;;15.21;100.00;98270.33;106728;1254;69174;-57
2024/04/16 08:21:01;;;;;;;4.20;3.70;;;;;;;15.26;100.00;98266.73;106274;1254;72742;-57
2024/04/16 08:23:29;;;;;;;5.30;4.40;;;;;;;15.36;100.00;98263.99;106593;1255;61761;-56
2024/04/16 08:26:02;;;;;;;5.90;4.60;;;;;;;15.53;100.00;98259.57;106482;1256;60894;-60
2024/04/16 08:28:35;;;;;;;7.50;4.60;;;;;;;15.51;100.00;98259.77;106399;1256;73989;-57
2024/04/16 08:31:02;;;;;;;10.30;4.90;;;;;;;15.57;100.00;98258.52;106715;1251;69650;-57
2024/04/16 08:33:30;;;;;;;7.70;4.20;;;;;;;15.60;100.00;98244.13;106479;1258;72521;-57
2024/04/16 08:35:57;;;;;;;10.90;5.00;;;;;;;15.74;100.00;98253.89;106436;1253;61866;-57
2024/04/16 08:38:25;;;;;;;7.20;4.60;;;;;;;15.79;100.00;98250.83;106351;1254;62170;-56
2024/04/16 08:40:52;;;;;;;7.90;4.70;;;;;;;15.83;100.00;98251.89;106436;1253;72790;-56
2024/04/16 08:43:19;;;;;;;6.90;4.20;;;;;;;16.00;100.00;98250.73;106052;1259;70043;-58
2024/04/16 08:45:47;;;;;;;8.20;4.50;;;;;;;16.05;100.00;98247.16;105820;1254;72903;-58
2024/04/16 08:48:14;;;;;;;12.80;4.70;;;;;;;16.08;100.00;98243.88;106567;1254;61844;-59
2024/04/16 08:50:40;;;;;;;7.80;4.40;;;;;;;16.21;100.00;98245.95;106617;1253;60646;-58
2024/04/16 08:53:07;;;;;;;5.90;4.50;;;;;;;16.40;100.00;98247.11;106269;1258;73805;-57
2024/04/16 08:55:35;;;;;;;7.80;4.60;;;;;;;16.48;100.00;98246.73;106396;1254;69021;-58
2024/04/16 08:58:03;;;;;;;5.40;4.30;;;;;;;16.42;100.00;98242.87;106779;1254;73413;-58
2024/04/16 09:00:31;;;;;;;8.40;4.40;;;;;;;16.40;100.00;98241.98;106378;1254;60440;-58
2024/04/16 09:02:58;;;;;;;6.80;4.70;;;;;;;16.61;100.00;98241.86;105905;1257;60498;-59
2024/04/16 09:05:25;;;;;;;6.60;4.40;;;;;;;16.76;100.00;98232.36;106460;1254;73745;-60
2024/04/16 09:07:52;;;;;;;10.50;5.00;;;;;;;16.90;100.00;98232.19;105915;1254;69520;-58
2024/04/16 09:10:23;;;;;;;4.60;4.10;;;;;;;16.99;100.00;98233.70;106921;1252;73052;-58
2024/04/16 09:12:49;;;;;;;6.70;4.30;;;;;;;16.91;100.00;98225.69;106247;1256;62300;-58
2024/04/16 09:15:17;;;;;;;7.40;4.00;;;;;;;17.15;100.00;98221.07;105979;1255;60370;-58
2024/04/16 09:17:51;;;;;;;9.50;4.10;;;;;;;17.28;100.00;98219.48;105703;1257;74059;-58
2024/04/16 09:20:24;;;;;;;6.30;4.50;;;;;;;17.16;100.00;98218.64;106315;1252;69562;-59
2024/04/16 09:22:52;;;;;;;10.10;4.20;;;;;;;17.21;100.00;98220.83;106752;1251;73286;-58
2024/04/16 09:25:20;;;;;;;6.20;4.40;;;;;;;17.31;100.00;98225.07;106106;1252;61345;-58
2024/04/16 09:27:47;;;;;;;7.80;3.90;;;;;;;17.43;100.00;98227.84;106399;1254;60431;-58
2024/04/16 09:30:14;;;;;;;;;;;;;;;17.81;100.00;98219.64;106356;1255;74012;-58
2024/04/16 09:32:43;;;;;;;7.40;3.90;;;;;;;17.87;100.00;98223.40;106204;1251;69831;-62
2024/04/16 09:35:10;;;;;;;7.50;4.90;;;;;;;17.94;100.00;98222.69;106134;1254;72710;-58
2024/04/16 09:37:38;;;;;;;6.20;3.90;;;;;;;17.84;100.00;98220.59;106881;1254;60731;-57
2024/04/16 09:40:09;;;;;;;8.50;4.30;;;;;;;17.93;100.00;98221.00;106994;1251;60581;-59
2024/04/16 09:42:37;;;;;;;6.40;4.20;;;;;;;18.00;100.00;98218.80;106421;1253;73086;-59
2024/04/16 09:45:05;;;;;;;7.50;4.10;;;;;;;18.33;100.00;98211.27;106449;1252;69740;-58
2024/04/16 09:47:35;;;;;;;10.00;4.30;;;;;;;18.58;100.00;98209.38;106272;1258;73121;-59
2024/04/16 09:50:02;;;;;;;8.10;4.00;;;;;;;18.60;100.00;98208.13;106370;1257;62450;-56
2024/04/16 09:52:48;;;;;;;6.80;4.40;;;;;;;18.79;100.00;98215.30;105878;1253;60536;-56
2024/04/16 09:55:16;;;;;;;8.60;4.30;;;;;;;18.92;100.00;98223.86;105981;1257;72654;-55
2024/04/16 09:57:43;;;;;;;;;;;;;;;18.96;100.00;98227.52;106276;1252;70132;-55
2024/04/16 10:00:10;;;;;;;7.60;5.40;;;;;;;19.00;100.00;98228.17;106779;1253;72676;-55
2024/04/16 10:02:37;;;;;;;6.40;5.00;;;;;;;18.96;100.00;98226.66;106046;1254;61958;-55
2024/04/16 10:05:04;;;;;;;7.10;4.90;;;;;;;18.93;100.00;98223.70;106699;1254;60977;-56
2024/04/16 10:07:31;;;;;;;8.50;5.40;;;;;;;18.82;100.00;98224.10;106517;1254;73045;-55
2024/04/16 10:09:58;;;;;;;8.90;5.80;;;;;;;18.70;100.00;98218.54;105745;1255;69669;-56
2024/04/16 10:12:25;;;;;;;14.50;6.10;;;;;;;18.58;100.00;98217.77;105753;1254;73287;-55
2024/04/16 10:14:52;;;;;;;8.00;6.10;;;;;;;18.65;100.00;98222.88;105498;1258;62042;-55
2024/04/16 10:17:18;;;;;;;10.70;6.90;;;;;;;18.53;100.00;98223.16;106443;1256;60890;-55
2024/04/16 10:19:45;;;;;;;10.10;7.40;;;;;;;18.35;100.00;98220.70;105753;1253;73898;-55
2024/04/16 10:22:13;;;;;;;11.90;7.50;;;;;;;18.34;100.00;98217.09;106027;1252;69831;-55
2024/04/16 10:24:50;;;;;;;10.30;7.50;;;;;;;18.38;100.00;98218.11;106232;1254;72679;-56
2024/04/16 10:27:19;;;;;;;8.50;6.50;;;;;;;18.49;100.00;98212.40;106437;1253;61946;-55
2024/04/16 10:29:46;;;;;;;12.60;7.70;;;;;;;18.57;100.00;98204.36;105986;1254;61173;-55
2024/04/16 10:32:13;;;;;;;10.50;7.80;;;;;;;18.78;100.00;98200.17;106219;1253;74647;-55
2024/04/16 10:34:40;;;;;;;10.50;7.50;;;;;;;18.83;100.00;98197.91;106082;1254;69710;-55
2024/04/16 10:37:08;;;;;;;;;;;;;;;19.07;100.00;98196.21;105907;1254;71480;-55
2024/04/16 10:39:34;;;;;;;10.00;7.80;;;;;;;19.25;100.00;98195.11;105960;1253;62289;-56
2024/04/16 10:42:02;;;;;;;10.60;7.20;;;;;;;19.31;100.00;98198.04;106026;1253;61284;-55
2024/04/16 10:44:29;;;;;;;11.00;7.20;;;;;;;19.34;100.00;98197.59;105966;1254;74751;-55
2024/04/16 10:46:57;;;;;;;9.10;6.40;;;;;;;19.62;100.00;98194.36;105940;1256;69176;-55
2024/04/16 10:49:26;;;;;;;8.80;7.90;;;;;;;19.79;100.00;98195.08;106608;1254;73028;-56
2024/04/16 10:51:54;;;;;;;11.30;7.70;;;;;;;20.15;100.00;98195.31;104473;1257;61698;-56
2024/04/16 10:54:21;;;;;;;8.60;6.60;;;;;;;20.17;100.00;98182.65;104460;1256;61368;-57
2024/04/16 10:56:50;;;;;;;9.30;6.30;;;;;;;20.08;100.00;98189.09;104927;1256;75056;-55
2024/04/16 10:59:17;;;;;;;7.00;6.40;;;;;;;20.05;100.00;98185.11;104342;1270;69809;-55
2024/04/16 11:01:45;;;;;;;11.50;7.00;;;;;;;20.14;100.00;98179.70;104383;1254;73048;-55
2024/04/16 11:04:13;;;;;;;5.90;4.80;;;;;;;20.09;100.00;98172.59;104373;1263;61795;-56
2024/04/16 11:06:41;;;;;;;9.10;5.70;;;;;;;20.16;100.00;98170.45;104706;1252;61264;-55
2024/04/16 11:09:10;;;;;;;9.10;6.20;;;;;;;20.14;100.00;98165.80;104287;1267;74695;-55
2024/04/16 11:11:40;;;;;;;9.90;7.30;;;;;;;20.12;100.00;98165.00;104793;1258;69701;-55
2024/04/16 11:14:07;;;;;;;7.10;5.90;;;;;;;20.08;100.00;98145.16;105692;1253;72471;-55
2024/04/16 11:16:33;;;;;;;14.40;8.60;;;;;;;20.10;100.00;98160.25;104505;1256;61710;-55
2024/04/16 11:19:02;;;;;;;8.80;7.40;;;;;;;20.23;100.00;98161.52;104619;1270;62092;-56
2024/04/16 11:21:34;;;;;;;9.70;6.80;;;;;;;20.30;100.00;98158.86;104678;1256;75168;-55
2024/04/16 11:24:02;;;;;;;9.70;7.20;;;;;;;20.50;100.00;98153.83;104746;1257;69618;-55
2024/04/16 11:26:29;;;;;;;6.20;5.50;;;;;;;20.59;100.00;98146.28;104454;1269;73154;-55
2024/04/16 11:28:56;;;;;;;7.20;6.20;;;;;;;20.59;100.00;98137.39;104620;1271;61352;-55
2024/04/16 11:31:23;;;;;;;8.50;5.40;;;;;;;20.71;100.00;98134.52;104581;1253;61451;-55
2024/04/16 11:33:50;;;;;;;9.90;6.60;;;;;;;20.83;100.00;98131.14;104435;1254;74923;-55
2024/04/16 11:36:17;;;;;;;11.90;5.70;;;;;;;21.04;100.00;98128.84;104971;1257;69485;-55
2024/04/16 11:38:44;;;;;;;6.30;5.70;;;;;;;21.05;100.00;98128.84;104494;1257;72630;-54
2024/04/16 11:41:11;;;;;;;8.40;5.50;;;;;;;20.83;100.00;98129.48;104693;1267;61619;-56
2024/04/16 11:43:41;;;;;;;7.70;5.40;;;;;;;20.89;100.00;98128.23;104637;1257;60766;-55
2024/04/16 11:46:11;;;;;;;7.80;5.90;;;;;;;21.05;100.00;98129.20;104798;1253;74137;-55
2024/04/16 11:48:38;;;;;;;8.20;4.90;;;;;;;21.02;100.00;98124.17;104391;1267;69298;-55
2024/04/16 11:51:08;;;;;;;7.30;4.70;;;;;;;21.06;100.00;98125.23;104390;1253;72910;-55
2024/04/16 11:53:35;;;;;;;6.30;5.00;;;;;;;21.21;100.00;98120.83;104912;1253;61892;-54
2024/04/16 11:56:02;;;;;;;12.10;5.20;;;;;;;21.45;100.00;98112.66;105131;1253;61447;-55
2024/04/16 11:58:29;;;;;;;11.40;4.20;;;;;;;21.49;100.00;98109.41;104655;1254;75284;-55
2024/04/16 12:00:59;;;;;;;8.00;3.40;;;;;;;21.69;100.00;98104.87;104560;1256;69800;-55
2024/04/16 12:03:26;;;;;;;5.10;3.20;;;;;;;21.72;100.00;98099.42;104438;1258;73003;-55
2024/04/16 12:05:53;;;;;;;8.20;3.30;;;;;;;21.74;100.00;98097.33;104889;1253;61708;-55
2024/04/16 12:08:20;;;;;;;6.60;2.60;;;;;;;21.78;100.00;98092.39;105095;1255;60651;-55
2024/04/16 12:10:47;;;;;;;4.80;2.00;;;;;;;21.82;100.00;98091.23;104749;1254;75060;-55
2024/04/16 12:13:14;;;;;;;7.00;1.80;;;;;;;21.87;100.00;98084.58;105252;1257;69594;-55
2024/04/16 12:15:41;;;;;;;8.30;1.70;;;;;;;21.84;97.64;98082.98;104494;1256;72767;-56
2024/04/16 12:18:07;;;;;;;5.10;1.90;;;;;;;21.74;96.09;98075.36;105231;1254;61460;-55
2024/04/16 12:20:35;;;;;;;5.60;1.50;;;;;;;21.57;97.22;98069.16;104997;1263;61304;-55
2024/04/16 12:23:01;;;;;;;6.10;1.80;;;;;;;21.62;98.63;98060.70;104847;1256;74646;-55
2024/04/16 12:25:28;;;;;;;9.00;1.70;;;;;;;21.75;96.08;98061.84;105230;1253;69686;-55
2024/04/16 12:27:55;;;;;;;6.30;1.30;;;;;;;21.82;90.95;98068.20;104510;1268;72406;-56
2024/04/16 12:30:22;;;;;;;3.80;1.40;;;;;;;21.82;85.61;98063.48;104699;1255;61372;-56
2024/04/16 12:32:49;;;;;;;6.80;1.60;;;;;;;21.91;84.45;98064.89;104584;1263;62101;-59
2024/04/16 12:35:32;;;;;;;7.60;1.90;;;;;;;22.08;83.94;98066.90;105294;1253;75007;-55
2024/04/16 12:37:59;;;;;;;4.90;1.80;;;;;;;22.23;82.86;98067.43;105047;1253;69583;-56
2024/04/16 12:40:26;;;;;;;3.10;1.40;;;;;;;22.41;80.77;98067.32;105171;1253;72506;-58
2024/04/16 12:42:53;;;;;;;7.50;2.90;;;;;;;22.52;77.76;98061.07;104758;1254;61388;-57
2024/04/16 12:45:20;;;;;;;5.40;1.70;;;;;;;22.65;75.48;98062.42;105516;1253;61384;-57
2024/04/16 12:47:47;;;;;;;2.60;1.70;;;;;;;22.66;74.55;98062.63;104900;1256;76277;-57
2024/04/16 12:50:14;;;;;;;4.10;1.40;;;;;;;22.79;73.07;98067.89;104677;1251;69756;-57
2024/04/16 12:52:43;;;;;;;4.90;1.50;;;;;;;23.01;68.41;98066.92;104929;1253;74713;-57
2024/04/16 12:55:10;;;;;;;4.70;2.40;;;;;;;23.08;66.82;98067.37;104932;1253;61345;-57
2024/04/16 12:57:37;;;;;;;9.40;2.00;;;;;;;23.12;67.90;98073.86;105338;1254;61259;-57
2024/04/16 13:00:05;;;;;;;3.20;1.50;;;;;;;23.13;66.80;98077.84;105245;1254;74391;-57
2024/04/16 13:02:34;;;;;;;5.00;1.30;;;;;;;23.07;67.58;98082.12;104813;1256;69518;-57
2024/04/16 13:05:01;;;;;;;6.20;1.80;;;;;;;23.02;69.00;98080.48;104789;1253;71769;-58
2024/04/16 13:07:28;;;;;;;2.80;1.40;;;;;;;22.94;69.41;98085.41;104904;1256;61380;-59
2024/04/16 13:09:55;;;;;;;4.90;2.00;;;;;;;22.79;69.89;98075.90;104864;1255;61383;-58
2024/04/16 13:12:22;;;;;;;8.70;1.80;;;;;;;22.62;71.55;98078.83;104844;1257;74788;-57
2024/04/16 13:14:49;;;;;;;8.50;2.60;;;;;;;22.42;71.92;98073.45;104917;1253;70106;-57
2024/04/16 13:17:16;;;;;;;8.10;1.60;;;;;;;22.25;71.70;98072.20;105055;1254;72629;-58
2024/04/16 13:19:47;;;;;;;2.90;1.70;;;;;;;22.10;74.98;98072.13;104332;1258;61737;-58
2024/04/16 13:22:18;;;;;;;5.10;1.30;;;;;;;22.03;76.23;98070.85;104814;1254;61262;-58
2024/04/16 13:24:45;;;;;;;8.20;1.70;;;;;;;22.06;77.59;98067.61;104539;1271;75137;-58
2024/04/16 13:27:12;;;;;;;6.20;1.90;;;;;;;22.17;78.06;98067.07;104883;1258;68867;-59
2024/04/16 13:29:39;;;;;;;9.30;3.20;;;;;;;22.31;78.74;98073.83;104750;1253;72540;-58
2024/04/16 13:32:06;;;;;;;6.70;2.10;;;;;;;22.43;76.02;98073.50;105207;1256;61451;-58
2024/04/16 13:34:33;;;;;;;4.60;1.40;;;;;;;22.50;73.46;98076.32;104863;1255;61342;-58
2024/04/16 13:37:00;;;;;;;3.80;1.90;;;;;;;22.53;73.54;98074.49;104704;1253;74483;-58
2024/04/16 13:39:28;;;;;;;6.30;2.00;;;;;;;22.72;73.69;98073.30;104661;1260;69642;-59
2024/04/16 13:41:55;;;;;;;7.20;1.60;;;;;;;22.82;73.70;98074.09;104692;1257;72698;-58
2024/04/16 13:44:22;;;;;;;7.60;2.20;;;;;;;22.80;73.35;98076.16;104673;1252;61257;-57
2024/04/16 13:46:49;;;;;;;6.30;1.40;;;;;;;22.67;71.67;98074.17;105110;1253;61728;-56
2024/04/16 13:49:15;;;;;;;4.50;1.40;;;;;;;22.55;72.56;98073.61;104434;1253;74766;-55
2024/04/16 13:51:42;;;;;;;6.30;1.90;;;;;;;22.38;74.19;98073.91;104384;1270;69588;-55
2024/04/16 13:54:09;;;;;;;5.70;1.90;;;;;;;22.26;74.84;98068.70;104680;1253;72846;-57
2024/04/16 13:56:36;;;;;;;8.70;2.50;;;;;;;22.11;76.52;98069.55;104856;1253;60782;-56
2024/04/16 13:59:03;;;;;;;5.50;1.90;;;;;;;22.02;77.40;98065.20;104693;1254;60763;-56
2024/04/16 14:01:30;;;;;;;3.80;1.30;;;;;;;21.99;77.92;98061.64;104711;1257;75321;-56
2024/04/16 14:03:57;;;;;;;4.30;1.70;;;;;;;22.02;77.69;98058.48;104426;1264;69782;-56
2024/04/16 14:06:24;;;;;;;4.90;1.70;;;;;;;22.08;77.37;98052.38;104542;1272;72616;-55
2024/04/16 14:08:51;;;;;;;10.70;2.90;;;;;;;22.11;78.77;98048.30;105903;1251;61252;-56
2024/04/16 14:11:17;;;;;;;7.60;2.90;;;;;;;22.15;77.98;98044.57;104842;1252;61681;-56
2024/04/16 14:13:44;;;;;;;7.40;1.80;;;;;;;22.25;78.54;98047.05;105143;1253;74816;-56
2024/04/16 14:16:11;;;;;;;7.60;2.00;;;;;;;22.34;76.73;98045.83;104796;1254;70349;-55
2024/04/16 14:18:38;;;;;;;8.50;2.10;;;;;;;22.39;77.10;98047.63;105194;1256;72718;-55
2024/04/16 14:21:06;;;;;;;5.00;1.70;;;;;;;22.38;75.92;98055.20;104449;1271;63166;-55
2024/04/16 14:23:34;;;;;;;6.60;2.00;;;;;;;22.28;76.52;98059.08;104422;1256;61270;-55
2024/04/16 14:26:01;;;;;;;8.30;1.90;;;;;;;22.14;78.07;98059.92;104458;1254;74437;-55
2024/04/16 14:28:30;;;;;;;5.70;1.30;;;;;;;22.02;79.80;98069.14;104497;1253;69465;-56
2024/04/16 14:30:57;;;;;;;5.70;2.00;;;;;;;21.91;80.90;98068.84;104492;1253;73012;-57
2024/04/16 14:33:24;;;;;;;8.30;1.70;;;;;;;21.80;82.73;98062.95;105124;1254;61304;-55
2024/04/16 14:35:52;;;;;;;8.10;2.40;;;;;;;21.70;83.94;98062.06;104301;1253;60352;-55
2024/04/16 14:38:19;;;;;;;6.70;2.00;;;;;;;21.61;84.57;98047.64;104388;1256;74980;-55
2024/04/16 14:40:46;;;;;;;6.40;2.00;;;;;;;21.53;85.43;98041.33;104382;1254;69617;-55
2024/04/16 14:43:13;;;;;;;3.30;1.50;;;;;;;21.49;86.17;98044.89;104269;1258;72650;-55
2024/04/16 14:45:40;;;;;;;8.60;1.70;;;;;;;21.44;87.74;98046.48;104403;1273;61365;-55
2024/04/16 14:48:08;;;;;;;10.20;1.80;;;;;;;21.39;88.69;98055.18;105094;1254;61262;-56
2024/04/16 14:50:44;;;;;;;7.60;2.20;;;;;;;21.35;89.82;98061.42;104530;1253;74688;-55
2024/04/16 14:53:13;;;;;;;7.90;2.20;;;;;;;21.29;90.04;98055.53;104898;1252;69529;-57
2024/04/16 14:55:42;;;;;;;9.60;1.80;;;;;;;21.22;91.86;98052.34;104359;1253;72799;-56
2024/04/16 14:58:09;;;;;;;7.00;1.60;;;;;;;21.16;94.11;98045.68;104794;1253;61282;-55
2024/04/16 15:00:43;;;;;;;5.40;2.20;;;;;;;20.97;95.68;98049.23;104504;1261;61439;-55
2024/04/16 15:03:11;;;;;;;8.80;2.30;;;;;;;20.92;97.34;98048.33;104553;1253;75112;-56
2024/04/16 15:05:39;;;;;;;8.50;2.50;;;;;;;20.96;96.88;98046.79;104798;1253;70838;-56
2024/04/16 15:08:06;;;;;;;10.30;2.60;;;;;;;20.88;97.30;98050.00;104298;1254;72788;-56
2024/04/16 15:10:34;;;;;;;6.80;2.90;;;;;;;20.81;99.25;98050.11;104324;1260;61390;-55
2024/04/16 15:13:06;;;;;;;7.70;3.10;;;;;;;20.78;99.71;98050.09;104381;1256;61257;-56
2024/04/16 15:15:33;;;;;;;7.00;2.20;;;;;;;20.75;100.00;98051.95;104769;1254;74064;-55
2024/04/16 15:18:00;;;;;;;8.10;2.80;;;;;;;20.76;100.00;98056.91;105076;1252;69717;-56
2024/04/16 15:20:27;;;;;;;12.60;2.90;;;;;;;20.76;100.00;98054.56;104459;1257;73216;-55
2024/04/16 15:22:56;;;;;;;5.80;2.80;;;;;;;20.75;100.00;98053.81;104723;1264;62282;-55
2024/04/16 15:25:23;;;;;;;8.70;3.00;;;;;;;20.77;100.00;98058.56;104753;1253;61378;-56
2024/04/16 15:27:50;;;;;;;21.60;10.90;;;;;;;20.74;100.00;98064.62;104982;1256;74511;-56
2024/04/16 15:30:16;;;;;;;22.90;14.10;;;;;;;20.60;100.00;98066.98;104335;1253;68732;-55
2024/04/16 15:32:44;;;;;;;42.60;27.40;;;;;;;20.58;100.00;98065.69;104540;1257;73096;-56
2024/04/16 15:35:11;;;;;;;17.70;9.50;;;;;;;20.47;100.00;98060.03;104742;1255;62293;-56
2024/04/16 15:37:41;;;;;;;8.50;5.40;;;;;;;20.45;100.00;98060.30;104271;1260;59896;-56
2024/04/16 15:40:08;;;;;;;6.40;4.00;;;;;;;20.46;100.00;98055.36;104548;1255;74704;-56
2024/04/16 15:42:46;;;;;;;56.40;36.00;;;;;;;20.46;100.00;98053.79;104877;1252;69846;-55
2024/04/16 15:45:14;;;;;;;169.00;113.30;;;;;;;20.21;100.00;98053.21;106456;1253;73813;-56
2024/04/16 15:47:41;;;;;;;173.90;124.40;;;;;;;20.19;100.00;98050.94;106290;1254;61777;-55
2024/04/16 15:50:08;;;;;;;118.10;82.30;;;;;;;20.15;100.00;98046.95;106517;1253;60542;-55
2024/04/16 15:52:35;;;;;;;89.50;63.20;;;;;;;20.09;100.00;98047.60;106765;1251;74883;-56
2024/04/16 15:55:02;;;;;;;75.00;54.60;;;;;;;20.13;100.00;98050.14;106566;1254;69602;-55
2024/04/16 15:57:29;;;;;;;19.30;11.50;;;;;;;20.22;100.00;98051.21;106754;1253;73608;-54
2024/04/16 15:59:56;;;;;;;10.50;6.20;;;;;;;19.98;100.00;98049.45;107089;1253;62279;-55
2024/04/16 16:02:22;;;;;;;5.90;3.20;;;;;;;19.91;100.00;98046.74;106702;1253;61378;-55
2024/04/16 16:04:50;;;;;;;6.20;2.70;;;;;;;19.88;100.00;98051.61;106772;1252;74686;-54
2024/04/16 16:07:17;;;;;;;6.10;2.60;;;;;;;20.00;100.00;98048.56;106460;1253;68725;-54
2024/04/16 16:09:44;;;;;;;10.50;2.40;;;;;;;19.82;100.00;98055.28;107132;1252;72037;-54
2024/04/16 16:12:11;;;;;;;10.70;2.70;;;;;;;19.67;100.00;98050.08;106120;1253;61619;-54
2024/04/16 16:14:38;;;;;;;11.90;2.60;;;;;;;19.65;100.00;98052.38;106235;1253;61295;-54
2024/04/16 16:17:05;;;;;;;9.20;2.90;;;;;;;19.62;100.00;98046.48;107280;1252;73490;-54
2024/04/16 16:19:33;;;;;;;14.80;2.90;;;;;;;19.60;100.00;98045.60;106440;1252;68698;-54
2024/04/16 16:22:00;;;;;;;8.80;2.90;;;;;;;19.57;100.00;98045.46;106343;1254;73866;-56
2024/04/16 16:24:28;;;;;;;5.20;2.50;;;;;;;19.52;100.00;98037.23;106825;1253;62383;-59
2024/04/16 16:26:57;;;;;;;9.90;2.50;;;;;;;19.50;100.00;98027.20;106795;1254;61268;-59
2024/04/16 16:29:24;;;;;;;;;;;;;;;19.48;100.00;98029.01;106767;1253;74394;-58
2024/04/16 16:31:51;;;;;;;5.10;2.20;;;;;;;19.44;100.00;98026.88;107298;1251;70476;-56
2024/04/16 16:34:18;;;;;;;7.50;2.60;;;;;;;19.38;100.00;98032.09;106529;1252;73029;-59
2024/04/16 16:36:45;;;;;;;9.00;3.20;;;;;;;19.32;100.00;98030.77;106549;1253;61230;-60
2024/04/16 16:39:11;;;;;;;10.30;2.90;;;;;;;19.27;100.00;98033.33;106699;1253;61346;-54
2024/04/16 16:41:40;;;;;;;5.80;3.20;;;;;;;19.16;100.00;98027.85;106434;1251;73429;-54
2024/04/16 16:44:07;;;;;;;7.70;3.00;;;;;;;19.09;100.00;98023.63;106761;1253;70404;-54
2024/04/16 16:46:34;;;;;;;9.50;3.00;;;;;;;19.05;100.00;98024.20;107097;1253;73658;-54
2024/04/16 16:49:03;;;;;;;8.10;2.70;;;;;;;18.97;100.00;98020.70;106690;1253;61790;-54
2024/04/16 16:51:30;;;;;;;11.40;2.70;;;;;;;18.92;100.00;98018.30;106336;1253;62014;-55
2024/04/16 16:53:57;;;;;;;10.40;3.50;;;;;;;18.86;100.00;98025.57;105998;1252;75135;-55
2024/04/16 16:56:25;;;;;;;7.40;2.90;;;;;;;18.89;100.00;98026.55;106518;1253;68306;-54
2024/04/16 16:58:52;;;;;;;8.50;2.80;;;;;;;18.74;100.00;98028.18;106098;1251;72647;-54
2024/04/16 17:01:19;;;;;;;9.80;2.80;;;;;;;18.67;100.00;98025.35;106635;1252;62193;-53